sensor_id;sensor_type;location;lat;lon;timestamp;P1;durP1;ratioP1;P2;durP2;ratioP2
16029;SDS011;34770;49.272;11.070;2023-09-07T00:01:19;5.13;;;4.68;;
16029;SDS011;34770;49.272;11.070;2023-09-07T00:03:44;6.07;;;5.00;;
16029;SDS011;34770;49.272;11.070;2023-09-07T00:06:09;5.15;;;4.65;;
16029;SDS011;34770;49.272;11.070;2023-09-07T00:08:35;5.53;;;4.35;;
16029;SDS011;34770;49.272;11.070;2023-09-07T00:11:07;6.68;;;4.32;;
16029;SDS011;34770;49.272;11.070;2023-09-07T00:13:33;8.68;;;4.45;;
16029;SDS011;34770;49.272;11.070;2023-09-07T00:16:02;5.60;;;5.10;;
16029;SDS011;34770;49.272;11.070;2023-09-07T00:18:28;5.82;;;4.47;;
16029;SDS011;34770;49.272;11.070;2023-09-07T00:20:54;4.65;;;4.25;;
16029;SDS011;34770;49.272;11.070;2023-09-07T00:23:20;6.80;;;4.45;;
16029;SDS011;34770;49.272;11.070;2023-09-07T00:25:45;7.75;;;5.07;;
16029;SDS011;34770;49.272;11.070;2023-09-07T00:28:11;5.20;;;4.47;;
16029;SDS011;34770;49.272;11.070;2023-09-07T00:30:37;4.85;;;4.38;;
16029;SDS011;34770;49.272;11.070;2023-09-07T00:33:02;5.43;;;4.18;;
16029;SDS011;34770;49.272;11.070;2023-09-07T00:35:28;4.95;;;4.40;;
16029;SDS011;34770;49.272;11.070;2023-09-07T00:37:53;5.40;;;4.47;;
16029;SDS011;34770;49.272;11.070;2023-09-07T00:40:19;5.78;;;4.85;;
16029;SDS011;34770;49.272;11.070;2023-09-07T00:42:45;7.35;;;5.00;;
16029;SDS011;34770;49.272;11.070;2023-09-07T00:45:10;6.35;;;5.75;;
16029;SDS011;34770;49.272;11.070;2023-09-07T00:47:36;5.40;;;4.90;;
16029;SDS011;34770;49.272;11.070;2023-09-07T00:50:02;5.78;;;5.25;;
16029;SDS011;34770;49.272;11.070;2023-09-07T00:52:29;5.88;;;5.35;;
16029;SDS011;34770;49.272;11.070;2023-09-07T00:54:55;6.53;;;5.15;;
16029;SDS011;34770;49.272;11.070;2023-09-07T00:57:21;5.93;;;5.32;;
16029;SDS011;34770;49.272;11.070;2023-09-07T00:59:46;7.20;;;5.38;;
16029;SDS011;34770;49.272;11.070;2023-09-07T01:02:12;6.15;;;5.20;;
16029;SDS011;34770;49.272;11.070;2023-09-07T01:04:37;5.50;;;4.95;;
16029;SDS011;34770;49.272;11.070;2023-09-07T01:07:05;5.45;;;4.95;;
16029;SDS011;34770;49.272;11.070;2023-09-07T01:09:39;6.15;;;4.93;;
16029;SDS011;34770;49.272;11.070;2023-09-07T01:12:05;7.35;;;5.88;;
16029;SDS011;34770;49.272;11.070;2023-09-07T01:14:35;6.95;;;5.40;;
16029;SDS011;34770;49.272;11.070;2023-09-07T01:17:01;5.93;;;5.32;;
16029;SDS011;34770;49.272;11.070;2023-09-07T01:19:27;5.47;;;4.93;;
16029;SDS011;34770;49.272;11.070;2023-09-07T01:21:52;6.82;;;4.85;;
16029;SDS011;34770;49.272;11.070;2023-09-07T01:24:18;7.05;;;5.25;;
16029;SDS011;34770;49.272;11.070;2023-09-07T01:26:45;5.57;;;5.07;;
16029;SDS011;34770;49.272;11.070;2023-09-07T01:29:14;5.70;;;5.18;;
16029;SDS011;34770;49.272;11.070;2023-09-07T01:31:41;5.90;;;5.22;;
16029;SDS011;34770;49.272;11.070;2023-09-07T01:34:07;6.40;;;5.10;;
16029;SDS011;34770;49.272;11.070;2023-09-07T01:36:33;5.57;;;4.93;;
16029;SDS011;34770;49.272;11.070;2023-09-07T01:38:59;5.85;;;5.25;;
16029;SDS011;34770;49.272;11.070;2023-09-07T01:41:24;6.70;;;5.28;;
16029;SDS011;34770;49.272;11.070;2023-09-07T01:43:49;5.72;;;5.22;;
16029;SDS011;34770;49.272;11.070;2023-09-07T01:46:15;5.05;;;4.63;;
16029;SDS011;34770;49.272;11.070;2023-09-07T01:48:40;6.53;;;5.50;;
16029;SDS011;34770;49.272;11.070;2023-09-07T01:51:07;7.35;;;4.97;;
16029;SDS011;34770;49.272;11.070;2023-09-07T01:53:32;5.75;;;5.07;;
16029;SDS011;34770;49.272;11.070;2023-09-07T01:55:58;6.25;;;5.30;;
16029;SDS011;34770;49.272;11.070;2023-09-07T01:58:24;6.18;;;5.50;;
16029;SDS011;34770;49.272;11.070;2023-09-07T02:00:50;5.30;;;4.57;;
16029;SDS011;34770;49.272;11.070;2023-09-07T02:03:15;6.03;;;5.38;;
16029;SDS011;34770;49.272;11.070;2023-09-07T02:05:41;7.10;;;5.50;;
16029;SDS011;34770;49.272;11.070;2023-09-07T02:08:06;5.18;;;4.65;;
16029;SDS011;34770;49.272;11.070;2023-09-07T02:10:32;5.72;;;5.20;;
16029;SDS011;34770;49.272;11.070;2023-09-07T02:12:58;5.65;;;4.70;;
16029;SDS011;34770;49.272;11.070;2023-09-07T02:15:24;5.63;;;5.13;;
16029;SDS011;34770;49.272;11.070;2023-09-07T02:17:49;7.13;;;5.60;;
16029;SDS011;34770;49.272;11.070;2023-09-07T02:20:15;7.15;;;5.80;;
16029;SDS011;34770;49.272;11.070;2023-09-07T02:22:40;5.60;;;5.10;;
16029;SDS011;34770;49.272;11.070;2023-09-07T02:25:06;5.97;;;5.38;;
16029;SDS011;34770;49.272;11.070;2023-09-07T02:27:32;6.53;;;5.88;;
16029;SDS011;34770;49.272;11.070;2023-09-07T02:29:58;6.63;;;5.22;;
16029;SDS011;34770;49.272;11.070;2023-09-07T02:32:23;7.70;;;5.50;;
16029;SDS011;34770;49.272;11.070;2023-09-07T02:34:49;6.50;;;5.88;;
16029;SDS011;34770;49.272;11.070;2023-09-07T02:37:14;9.32;;;5.72;;
16029;SDS011;34770;49.272;11.070;2023-09-07T02:39:41;6.15;;;5.55;;
16029;SDS011;34770;49.272;11.070;2023-09-07T02:42:07;6.88;;;5.60;;
16029;SDS011;34770;49.272;11.070;2023-09-07T02:44:32;6.28;;;5.60;;
16029;SDS011;34770;49.272;11.070;2023-09-07T02:46:57;6.68;;;5.53;;
16029;SDS011;34770;49.272;11.070;2023-09-07T02:49:23;5.30;;;4.80;;
16029;SDS011;34770;49.272;11.070;2023-09-07T02:51:48;6.57;;;5.97;;
16029;SDS011;34770;49.272;11.070;2023-09-07T02:54:13;6.68;;;5.55;;
16029;SDS011;34770;49.272;11.070;2023-09-07T02:56:39;5.90;;;5.03;;
16029;SDS011;34770;49.272;11.070;2023-09-07T02:59:04;6.55;;;5.95;;
16029;SDS011;34770;49.272;11.070;2023-09-07T03:01:30;5.55;;;5.05;;
16029;SDS011;34770;49.272;11.070;2023-09-07T03:03:56;6.25;;;5.65;;
16029;SDS011;34770;49.272;11.070;2023-09-07T03:06:21;12.88;;;5.70;;
16029;SDS011;34770;49.272;11.070;2023-09-07T03:08:46;5.80;;;4.90;;
16029;SDS011;34770;49.272;11.070;2023-09-07T03:11:12;6.53;;;5.93;;
16029;SDS011;34770;49.272;11.070;2023-09-07T03:13:37;6.15;;;4.72;;
16029;SDS011;34770;49.272;11.070;2023-09-07T03:16:03;5.53;;;5.00;;
16029;SDS011;34770;49.272;11.070;2023-09-07T03:18:29;6.00;;;5.40;;
16029;SDS011;34770;49.272;11.070;2023-09-07T03:20:55;5.32;;;4.82;;
16029;SDS011;34770;49.272;11.070;2023-09-07T03:23:22;5.72;;;5.20;;
16029;SDS011;34770;49.272;11.070;2023-09-07T03:25:48;6.03;;;5.43;;
16029;SDS011;34770;49.272;11.070;2023-09-07T03:28:13;7.60;;;5.22;;
16029;SDS011;34770;49.272;11.070;2023-09-07T03:30:39;7.47;;;4.85;;
16029;SDS011;34770;49.272;11.070;2023-09-07T03:33:05;4.80;;;4.38;;
16029;SDS011;34770;49.272;11.070;2023-09-07T03:35:31;7.50;;;5.05;;
16029;SDS011;34770;49.272;11.070;2023-09-07T03:37:56;5.78;;;5.22;;
16029;SDS011;34770;49.272;11.070;2023-09-07T03:40:21;6.47;;;5.13;;
16029;SDS011;34770;49.272;11.070;2023-09-07T03:42:47;5.03;;;4.53;;
16029;SDS011;34770;49.272;11.070;2023-09-07T03:45:12;5.03;;;4.53;;
16029;SDS011;34770;49.272;11.070;2023-09-07T03:47:38;8.02;;;5.38;;
16029;SDS011;34770;49.272;11.070;2023-09-07T03:50:03;5.60;;;5.10;;
16029;SDS011;34770;49.272;11.070;2023-09-07T03:52:29;5.60;;;4.97;;
16029;SDS011;34770;49.272;11.070;2023-09-07T03:54:55;6.22;;;5.22;;
16029;SDS011;34770;49.272;11.070;2023-09-07T03:57:21;6.78;;;5.50;;
16029;SDS011;34770;49.272;11.070;2023-09-07T03:59:47;5.35;;;4.90;;
16029;SDS011;34770;49.272;11.070;2023-09-07T04:02:13;5.38;;;4.88;;
16029;SDS011;34770;49.272;11.070;2023-09-07T04:04:39;6.07;;;5.47;;
16029;SDS011;34770;49.272;11.070;2023-09-07T04:07:05;5.40;;;4.80;;
16029;SDS011;34770;49.272;11.070;2023-09-07T04:09:30;8.45;;;5.63;;
16029;SDS011;34770;49.272;11.070;2023-09-07T04:11:56;5.53;;;5.03;;
16029;SDS011;34770;49.272;11.070;2023-09-07T04:14:21;6.38;;;5.78;;
16029;SDS011;34770;49.272;11.070;2023-09-07T04:16:46;6.47;;;5.88;;
16029;SDS011;34770;49.272;11.070;2023-09-07T04:19:12;7.55;;;4.50;;
16029;SDS011;34770;49.272;11.070;2023-09-07T04:21:37;5.55;;;5.05;;
16029;SDS011;34770;49.272;11.070;2023-09-07T04:24:03;5.53;;;5.05;;
16029;SDS011;34770;49.272;11.070;2023-09-07T04:26:29;6.15;;;5.53;;
16029;SDS011;34770;49.272;11.070;2023-09-07T04:28:54;5.35;;;4.85;;
16029;SDS011;34770;49.272;11.070;2023-09-07T04:31:20;5.82;;;5.03;;
16029;SDS011;34770;49.272;11.070;2023-09-07T04:33:46;5.07;;;4.63;;
16029;SDS011;34770;49.272;11.070;2023-09-07T04:36:12;5.68;;;4.47;;
16029;SDS011;34770;49.272;11.070;2023-09-07T04:38:39;7.07;;;4.93;;
16029;SDS011;34770;49.272;11.070;2023-09-07T04:41:08;5.35;;;4.85;;
16029;SDS011;34770;49.272;11.070;2023-09-07T04:43:35;7.28;;;4.43;;
16029;SDS011;34770;49.272;11.070;2023-09-07T04:46:01;6.43;;;5.03;;
16029;SDS011;34770;49.272;11.070;2023-09-07T04:48:27;6.65;;;5.20;;
16029;SDS011;34770;49.272;11.070;2023-09-07T04:51:02;6.97;;;4.18;;
16029;SDS011;34770;49.272;11.070;2023-09-07T04:53:29;5.22;;;4.72;;
16029;SDS011;34770;49.272;11.070;2023-09-07T04:55:56;5.65;;;4.47;;
16029;SDS011;34770;49.272;11.070;2023-09-07T04:58:24;5.82;;;4.70;;
16029;SDS011;34770;49.272;11.070;2023-09-07T05:00:50;5.68;;;5.10;;
16029;SDS011;34770;49.272;11.070;2023-09-07T05:03:16;5.80;;;4.45;;
16029;SDS011;34770;49.272;11.070;2023-09-07T05:05:41;5.65;;;4.88;;
16029;SDS011;34770;49.272;11.070;2023-09-07T05:08:08;6.60;;;4.63;;
16029;SDS011;34770;49.272;11.070;2023-09-07T05:10:34;6.60;;;5.22;;
16029;SDS011;34770;49.272;11.070;2023-09-07T05:12:59;4.93;;;4.43;;
16029;SDS011;34770;49.272;11.070;2023-09-07T05:15:25;5.65;;;4.63;;
16029;SDS011;34770;49.272;11.070;2023-09-07T05:17:51;5.50;;;4.88;;
16029;SDS011;34770;49.272;11.070;2023-09-07T05:20:19;5.57;;;4.40;;
16029;SDS011;34770;49.272;11.070;2023-09-07T05:22:45;5.18;;;4.68;;
16029;SDS011;34770;49.272;11.070;2023-09-07T05:25:10;5.57;;;5.00;;
16029;SDS011;34770;49.272;11.070;2023-09-07T05:27:36;6.18;;;4.40;;
16029;SDS011;34770;49.272;11.070;2023-09-07T05:30:02;5.35;;;4.85;;
16029;SDS011;34770;49.272;11.070;2023-09-07T05:32:28;4.82;;;4.32;;
16029;SDS011;34770;49.272;11.070;2023-09-07T05:34:53;5.10;;;4.60;;
16029;SDS011;34770;49.272;11.070;2023-09-07T05:37:19;5.55;;;4.93;;
16029;SDS011;34770;49.272;11.070;2023-09-07T05:39:44;4.95;;;4.38;;
16029;SDS011;34770;49.272;11.070;2023-09-07T05:42:10;6.15;;;4.30;;
16029;SDS011;34770;49.272;11.070;2023-09-07T05:44:37;6.45;;;4.60;;
16029;SDS011;34770;49.272;11.070;2023-09-07T05:47:02;7.15;;;4.70;;
16029;SDS011;34770;49.272;11.070;2023-09-07T05:49:27;5.00;;;4.50;;
16029;SDS011;34770;49.272;11.070;2023-09-07T05:51:53;6.80;;;4.63;;
16029;SDS011;34770;49.272;11.070;2023-09-07T05:54:18;4.65;;;4.25;;
16029;SDS011;34770;49.272;11.070;2023-09-07T05:56:44;6.05;;;4.75;;
16029;SDS011;34770;49.272;11.070;2023-09-07T05:59:09;6.47;;;5.15;;
16029;SDS011;34770;49.272;11.070;2023-09-07T06:01:34;5.20;;;4.70;;
16029;SDS011;34770;49.272;11.070;2023-09-07T06:04:00;5.00;;;4.60;;
16029;SDS011;34770;49.272;11.070;2023-09-07T06:06:25;4.53;;;4.13;;
16029;SDS011;34770;49.272;11.070;2023-09-07T06:08:51;8.00;;;4.93;;
16029;SDS011;34770;49.272;11.070;2023-09-07T06:11:16;6.82;;;4.97;;
16029;SDS011;34770;49.272;11.070;2023-09-07T06:13:41;6.05;;;5.07;;
16029;SDS011;34770;49.272;11.070;2023-09-07T06:16:07;5.70;;;4.60;;
16029;SDS011;34770;49.272;11.070;2023-09-07T06:18:32;5.45;;;4.90;;
16029;SDS011;34770;49.272;11.070;2023-09-07T06:20:58;6.72;;;5.45;;
16029;SDS011;34770;49.272;11.070;2023-09-07T06:23:23;5.97;;;5.25;;
16029;SDS011;34770;49.272;11.070;2023-09-07T06:25:48;5.22;;;4.70;;
16029;SDS011;34770;49.272;11.070;2023-09-07T06:28:14;7.13;;;5.53;;
16029;SDS011;34770;49.272;11.070;2023-09-07T06:30:39;6.03;;;5.47;;
16029;SDS011;34770;49.272;11.070;2023-09-07T06:33:05;6.65;;;6.05;;
16029;SDS011;34770;49.272;11.070;2023-09-07T06:35:30;5.80;;;5.22;;
16029;SDS011;34770;49.272;11.070;2023-09-07T06:37:55;6.85;;;4.97;;
16029;SDS011;34770;49.272;11.070;2023-09-07T06:40:21;7.32;;;5.28;;
16029;SDS011;34770;49.272;11.070;2023-09-07T06:42:47;5.93;;;4.82;;
16029;SDS011;34770;49.272;11.070;2023-09-07T06:45:12;6.07;;;5.47;;
16029;SDS011;34770;49.272;11.070;2023-09-07T06:47:38;9.05;;;5.15;;
16029;SDS011;34770;49.272;11.070;2023-09-07T06:50:04;5.28;;;4.78;;
16029;SDS011;34770;49.272;11.070;2023-09-07T06:52:30;6.13;;;5.25;;
16029;SDS011;34770;49.272;11.070;2023-09-07T06:54:56;5.32;;;4.90;;
16029;SDS011;34770;49.272;11.070;2023-09-07T06:57:21;10.13;;;5.47;;
16029;SDS011;34770;49.272;11.070;2023-09-07T06:59:47;6.10;;;5.47;;
16029;SDS011;34770;49.272;11.070;2023-09-07T07:02:13;6.40;;;5.60;;
16029;SDS011;34770;49.272;11.070;2023-09-07T07:04:39;5.68;;;5.13;;
16029;SDS011;34770;49.272;11.070;2023-09-07T07:07:04;6.55;;;5.95;;
16029;SDS011;34770;49.272;11.070;2023-09-07T07:09:30;6.22;;;5.63;;
16029;SDS011;34770;49.272;11.070;2023-09-07T07:11:58;6.53;;;5.85;;
16029;SDS011;34770;49.272;11.070;2023-09-07T07:14:26;8.77;;;5.13;;
16029;SDS011;34770;49.272;11.070;2023-09-07T07:16:51;6.00;;;5.43;;
16029;SDS011;34770;49.272;11.070;2023-09-07T07:19:16;7.28;;;5.45;;
16029;SDS011;34770;49.272;11.070;2023-09-07T07:21:42;6.53;;;5.60;;
16029;SDS011;34770;49.272;11.070;2023-09-07T07:24:07;6.15;;;5.55;;
16029;SDS011;34770;49.272;11.070;2023-09-07T07:26:33;5.90;;;5.30;;
16029;SDS011;34770;49.272;11.070;2023-09-07T07:28:58;4.97;;;4.45;;
16029;SDS011;34770;49.272;11.070;2023-09-07T07:31:23;5.20;;;4.43;;
16029;SDS011;34770;49.272;11.070;2023-09-07T07:33:49;8.00;;;5.25;;
16029;SDS011;34770;49.272;11.070;2023-09-07T07:36:15;5.72;;;4.30;;
16029;SDS011;34770;49.272;11.070;2023-09-07T07:38:40;6.20;;;5.57;;
16029;SDS011;34770;49.272;11.070;2023-09-07T07:41:05;5.95;;;5.13;;
16029;SDS011;34770;49.272;11.070;2023-09-07T07:43:32;6.53;;;5.07;;
16029;SDS011;34770;49.272;11.070;2023-09-07T07:45:58;6.28;;;4.80;;
16029;SDS011;34770;49.272;11.070;2023-09-07T07:48:24;5.53;;;5.00;;
16029;SDS011;34770;49.272;11.070;2023-09-07T07:50:49;6.18;;;5.15;;
16029;SDS011;34770;49.272;11.070;2023-09-07T07:53:14;5.28;;;4.78;;
16029;SDS011;34770;49.272;11.070;2023-09-07T07:55:40;5.85;;;4.90;;
16029;SDS011;34770;49.272;11.070;2023-09-07T07:58:06;5.10;;;4.68;;
16029;SDS011;34770;49.272;11.070;2023-09-07T08:00:35;6.30;;;4.35;;
16029;SDS011;34770;49.272;11.070;2023-09-07T08:03:01;6.65;;;5.00;;
16029;SDS011;34770;49.272;11.070;2023-09-07T08:05:33;5.78;;;4.47;;
16029;SDS011;34770;49.272;11.070;2023-09-07T08:07:59;4.72;;;4.15;;
16029;SDS011;34770;49.272;11.070;2023-09-07T08:10:25;6.45;;;4.45;;
16029;SDS011;34770;49.272;11.070;2023-09-07T08:12:53;5.05;;;4.55;;
16029;SDS011;34770;49.272;11.070;2023-09-07T08:15:19;7.15;;;4.95;;
16029;SDS011;34770;49.272;11.070;2023-09-07T08:17:46;5.88;;;4.15;;
16029;SDS011;34770;49.272;11.070;2023-09-07T08:20:12;6.55;;;4.95;;
16029;SDS011;34770;49.272;11.070;2023-09-07T08:22:38;6.45;;;4.57;;
16029;SDS011;34770;49.272;11.070;2023-09-07T08:25:06;8.50;;;4.63;;
16029;SDS011;34770;49.272;11.070;2023-09-07T08:27:32;7.05;;;4.25;;
16029;SDS011;34770;49.272;11.070;2023-09-07T08:29:57;7.72;;;4.53;;
16029;SDS011;34770;49.272;11.070;2023-09-07T08:32:24;6.15;;;3.92;;
16029;SDS011;34770;49.272;11.070;2023-09-07T08:34:49;4.95;;;4.45;;
16029;SDS011;34770;49.272;11.070;2023-09-07T08:37:15;5.13;;;4.60;;
16029;SDS011;34770;49.272;11.070;2023-09-07T08:39:41;4.40;;;3.90;;
16029;SDS011;34770;49.272;11.070;2023-09-07T08:42:06;4.15;;;3.72;;
16029;SDS011;34770;49.272;11.070;2023-09-07T08:44:32;4.95;;;4.05;;
16029;SDS011;34770;49.272;11.070;2023-09-07T08:46:59;5.47;;;3.47;;
16029;SDS011;34770;49.272;11.070;2023-09-07T08:49:28;4.20;;;3.53;;
16029;SDS011;34770;49.272;11.070;2023-09-07T08:51:57;5.97;;;3.10;;
16029;SDS011;34770;49.272;11.070;2023-09-07T08:54:23;3.35;;;3.05;;
16029;SDS011;34770;49.272;11.070;2023-09-07T08:56:50;3.15;;;2.90;;
16029;SDS011;34770;49.272;11.070;2023-09-07T08:59:15;5.07;;;3.30;;
16029;SDS011;34770;49.272;11.070;2023-09-07T09:01:41;3.63;;;3.25;;
16029;SDS011;34770;49.272;11.070;2023-09-07T09:04:07;3.22;;;2.92;;
16029;SDS011;34770;49.272;11.070;2023-09-07T09:06:32;3.00;;;2.70;;
16029;SDS011;34770;49.272;11.070;2023-09-07T09:08:58;4.78;;;2.97;;
16029;SDS011;34770;49.272;11.070;2023-09-07T09:11:24;4.93;;;3.08;;
16029;SDS011;34770;49.272;11.070;2023-09-07T09:13:51;5.43;;;2.47;;
16029;SDS011;34770;49.272;11.070;2023-09-07T09:16:17;2.60;;;2.40;;
16029;SDS011;34770;49.272;11.070;2023-09-07T09:21:59;4.50;;;2.97;;
16029;SDS011;34770;49.272;11.070;2023-09-07T09:24:25;3.10;;;2.63;;
16029;SDS011;34770;49.272;11.070;2023-09-07T09:26:50;3.17;;;2.88;;
16029;SDS011;34770;49.272;11.070;2023-09-07T09:29:15;4.75;;;2.97;;
16029;SDS011;34770;49.272;11.070;2023-09-07T09:31:41;4.53;;;3.08;;
16029;SDS011;34770;49.272;11.070;2023-09-07T09:34:06;4.28;;;2.95;;
16029;SDS011;34770;49.272;11.070;2023-09-07T09:36:35;3.25;;;2.75;;
16029;SDS011;34770;49.272;11.070;2023-09-07T09:39:01;2.72;;;2.45;;
16029;SDS011;34770;49.272;11.070;2023-09-07T09:41:28;6.75;;;2.97;;
16029;SDS011;34770;49.272;11.070;2023-09-07T09:43:56;7.75;;;2.63;;
16029;SDS011;34770;49.272;11.070;2023-09-07T09:46:23;3.22;;;2.92;;
16029;SDS011;34770;49.272;11.070;2023-09-07T09:48:50;4.25;;;2.80;;
16029;SDS011;34770;49.272;11.070;2023-09-07T09:51:16;7.80;;;2.95;;
16029;SDS011;34770;49.272;11.070;2023-09-07T09:53:43;4.05;;;2.50;;
16029;SDS011;34770;49.272;11.070;2023-09-07T09:56:10;4.75;;;3.03;;
16029;SDS011;34770;49.272;11.070;2023-09-07T09:58:36;4.18;;;2.97;;
16029;SDS011;34770;49.272;11.070;2023-09-07T10:01:02;3.72;;;2.60;;
16029;SDS011;34770;49.272;11.070;2023-09-07T10:03:38;4.68;;;3.00;;
16029;SDS011;34770;49.272;11.070;2023-09-07T10:06:32;2.63;;;2.42;;
16029;SDS011;34770;49.272;11.070;2023-09-07T10:09:01;2.72;;;2.53;;
16029;SDS011;34770;49.272;11.070;2023-09-07T10:11:33;5.60;;;3.08;;
16029;SDS011;34770;49.272;11.070;2023-09-07T10:14:03;3.08;;;2.75;;
16029;SDS011;34770;49.272;11.070;2023-09-07T10:16:43;3.83;;;3.03;;
16029;SDS011;34770;49.272;11.070;2023-09-07T10:21:42;4.40;;;2.63;;
16029;SDS011;34770;49.272;11.070;2023-09-07T10:24:07;4.93;;;2.92;;
16029;SDS011;34770;49.272;11.070;2023-09-07T10:26:33;4.43;;;2.65;;
16029;SDS011;34770;49.272;11.070;2023-09-07T10:28:59;4.10;;;2.70;;
16029;SDS011;34770;49.272;11.070;2023-09-07T10:31:25;3.20;;;2.72;;
16029;SDS011;34770;49.272;11.070;2023-09-07T10:33:51;3.03;;;2.50;;
16029;SDS011;34770;49.272;11.070;2023-09-07T10:36:24;2.65;;;2.45;;
16029;SDS011;34770;49.272;11.070;2023-09-07T10:38:50;8.45;;;2.67;;
16029;SDS011;34770;49.272;11.070;2023-09-07T10:41:19;2.47;;;2.28;;
16029;SDS011;34770;49.272;11.070;2023-09-07T10:46:13;3.92;;;2.53;;
16029;SDS011;34770;49.272;11.070;2023-09-07T10:48:38;3.42;;;2.83;;
16029;SDS011;34770;49.272;11.070;2023-09-07T10:51:04;2.53;;;2.33;;
16029;SDS011;34770;49.272;11.070;2023-09-07T10:53:30;3.20;;;2.80;;
16029;SDS011;34770;49.272;11.070;2023-09-07T10:56:04;3.70;;;2.78;;
16029;SDS011;34770;49.272;11.070;2023-09-07T10:58:30;3.70;;;2.47;;
16029;SDS011;34770;49.272;11.070;2023-09-07T11:00:57;3.97;;;2.70;;
16029;SDS011;34770;49.272;11.070;2023-09-07T11:03:24;3.60;;;2.70;;
16029;SDS011;34770;49.272;11.070;2023-09-07T11:05:52;4.63;;;2.60;;
16029;SDS011;34770;49.272;11.070;2023-09-07T11:08:20;3.20;;;2.78;;
16029;SDS011;34770;49.272;11.070;2023-09-07T11:10:46;3.45;;;2.47;;
16029;SDS011;34770;49.272;11.070;2023-09-07T11:13:12;4.10;;;3.17;;
16029;SDS011;34770;49.272;11.070;2023-09-07T11:15:37;4.60;;;2.40;;
16029;SDS011;34770;49.272;11.070;2023-09-07T11:18:04;3.42;;;2.70;;
16029;SDS011;34770;49.272;11.070;2023-09-07T11:20:31;4.25;;;2.80;;
16029;SDS011;34770;49.272;11.070;2023-09-07T11:22:57;2.78;;;2.58;;
16029;SDS011;34770;49.272;11.070;2023-09-07T11:25:22;3.22;;;2.92;;
16029;SDS011;34770;49.272;11.070;2023-09-07T11:27:47;5.20;;;2.53;;
16029;SDS011;34770;49.272;11.070;2023-09-07T11:30:13;4.50;;;2.72;;
16029;SDS011;34770;49.272;11.070;2023-09-07T11:32:38;5.25;;;2.78;;
16029;SDS011;34770;49.272;11.070;2023-09-07T11:35:05;6.35;;;2.65;;
16029;SDS011;34770;49.272;11.070;2023-09-07T11:37:33;4.43;;;3.17;;
16029;SDS011;34770;49.272;11.070;2023-09-07T11:40:00;4.93;;;2.90;;
16029;SDS011;34770;49.272;11.070;2023-09-07T11:42:25;2.88;;;2.58;;
16029;SDS011;34770;49.272;11.070;2023-09-07T11:44:51;4.35;;;2.55;;
16029;SDS011;34770;49.272;11.070;2023-09-07T11:47:16;4.82;;;2.97;;
16029;SDS011;34770;49.272;11.070;2023-09-07T11:49:42;2.88;;;2.42;;
16029;SDS011;34770;49.272;11.070;2023-09-07T11:52:07;6.13;;;3.00;;
16029;SDS011;34770;49.272;11.070;2023-09-07T11:54:32;4.57;;;2.78;;
16029;SDS011;34770;49.272;11.070;2023-09-07T11:56:58;6.30;;;3.05;;
16029;SDS011;34770;49.272;11.070;2023-09-07T11:59:23;4.65;;;2.47;;
16029;SDS011;34770;49.272;11.070;2023-09-07T12:01:48;4.68;;;3.35;;
16029;SDS011;34770;49.272;11.070;2023-09-07T12:04:14;3.63;;;2.55;;
16029;SDS011;34770;49.272;11.070;2023-09-07T12:06:39;5.28;;;2.67;;
16029;SDS011;34770;49.272;11.070;2023-09-07T12:09:05;5.10;;;2.47;;
16029;SDS011;34770;49.272;11.070;2023-09-07T12:11:32;5.03;;;2.80;;
16029;SDS011;34770;49.272;11.070;2023-09-07T12:13:58;4.93;;;2.92;;
16029;SDS011;34770;49.272;11.070;2023-09-07T12:16:24;3.78;;;2.72;;
16029;SDS011;34770;49.272;11.070;2023-09-07T12:18:50;7.03;;;2.92;;
16029;SDS011;34770;49.272;11.070;2023-09-07T12:21:16;5.35;;;2.78;;
16029;SDS011;34770;49.272;11.070;2023-09-07T12:23:41;4.97;;;3.00;;
16029;SDS011;34770;49.272;11.070;2023-09-07T12:26:06;6.25;;;3.00;;
16029;SDS011;34770;49.272;11.070;2023-09-07T12:28:33;3.42;;;2.50;;
16029;SDS011;34770;49.272;11.070;2023-09-07T12:30:59;5.63;;;2.70;;
16029;SDS011;34770;49.272;11.070;2023-09-07T12:33:24;5.53;;;3.38;;
16029;SDS011;34770;49.272;11.070;2023-09-07T12:35:50;6.60;;;3.17;;
16029;SDS011;34770;49.272;11.070;2023-09-07T12:38:16;5.78;;;2.80;;
16029;SDS011;34770;49.272;11.070;2023-09-07T12:40:46;4.10;;;3.05;;
16029;SDS011;34770;49.272;11.070;2023-09-07T12:43:11;5.10;;;2.90;;
16029;SDS011;34770;49.272;11.070;2023-09-07T12:45:36;5.70;;;3.05;;
16029;SDS011;34770;49.272;11.070;2023-09-07T12:48:02;5.88;;;3.15;;
16029;SDS011;34770;49.272;11.070;2023-09-07T12:50:27;3.45;;;2.88;;
16029;SDS011;34770;49.272;11.070;2023-09-07T12:52:53;6.25;;;2.60;;
16029;SDS011;34770;49.272;11.070;2023-09-07T12:55:19;4.07;;;2.92;;
16029;SDS011;34770;49.272;11.070;2023-09-07T12:57:45;4.90;;;2.65;;
16029;SDS011;34770;49.272;11.070;2023-09-07T13:00:11;3.75;;;2.83;;
16029;SDS011;34770;49.272;11.070;2023-09-07T13:02:37;4.93;;;2.50;;
16029;SDS011;34770;49.272;11.070;2023-09-07T13:05:02;5.75;;;2.90;;
16029;SDS011;34770;49.272;11.070;2023-09-07T13:07:30;3.92;;;2.92;;
16029;SDS011;34770;49.272;11.070;2023-09-07T13:09:57;3.97;;;3.28;;
16029;SDS011;34770;49.272;11.070;2023-09-07T13:12:23;4.75;;;2.90;;
16029;SDS011;34770;49.272;11.070;2023-09-07T13:14:48;3.70;;;3.13;;
16029;SDS011;34770;49.272;11.070;2023-09-07T13:17:14;3.70;;;2.95;;
16029;SDS011;34770;49.272;11.070;2023-09-07T13:19:39;7.25;;;3.03;;
16029;SDS011;34770;49.272;11.070;2023-09-07T13:22:05;3.38;;;3.03;;
16029;SDS011;34770;49.272;11.070;2023-09-07T13:24:32;5.93;;;2.90;;
16029;SDS011;34770;49.272;11.070;2023-09-07T13:26:58;6.72;;;3.22;;
16029;SDS011;34770;49.272;11.070;2023-09-07T13:29:23;4.95;;;2.67;;
16029;SDS011;34770;49.272;11.070;2023-09-07T13:31:50;3.55;;;3.15;;
16029;SDS011;34770;49.272;11.070;2023-09-07T13:34:17;4.45;;;2.75;;
16029;SDS011;34770;49.272;11.070;2023-09-07T13:36:43;7.18;;;2.75;;
16029;SDS011;34770;49.272;11.070;2023-09-07T13:39:08;3.40;;;2.83;;
16029;SDS011;34770;49.272;11.070;2023-09-07T13:41:33;3.85;;;3.03;;
16029;SDS011;34770;49.272;11.070;2023-09-07T13:43:59;4.05;;;3.10;;
16029;SDS011;34770;49.272;11.070;2023-09-07T13:46:25;4.13;;;2.70;;
16029;SDS011;34770;49.272;11.070;2023-09-07T13:48:51;4.32;;;2.88;;
16029;SDS011;34770;49.272;11.070;2023-09-07T13:51:16;5.68;;;2.70;;
16029;SDS011;34770;49.272;11.070;2023-09-07T13:53:41;8.50;;;3.70;;
16029;SDS011;34770;49.272;11.070;2023-09-07T13:56:07;3.83;;;2.55;;
16029;SDS011;34770;49.272;11.070;2023-09-07T13:58:32;5.18;;;2.70;;
16029;SDS011;34770;49.272;11.070;2023-09-07T14:00:57;4.53;;;2.90;;
16029;SDS011;34770;49.272;11.070;2023-09-07T14:03:23;3.83;;;2.63;;
16029;SDS011;34770;49.272;11.070;2023-09-07T14:05:48;4.82;;;3.00;;
16029;SDS011;34770;49.272;11.070;2023-09-07T14:08:13;5.03;;;2.70;;
16029;SDS011;34770;49.272;11.070;2023-09-07T14:10:39;5.65;;;3.05;;
16029;SDS011;34770;49.272;11.070;2023-09-07T14:13:04;8.20;;;3.00;;
16029;SDS011;34770;49.272;11.070;2023-09-07T14:15:29;4.88;;;3.00;;
16029;SDS011;34770;49.272;11.070;2023-09-07T14:17:56;5.32;;;2.83;;
16029;SDS011;34770;49.272;11.070;2023-09-07T14:20:22;6.00;;;2.95;;
16029;SDS011;34770;49.272;11.070;2023-09-07T14:22:47;5.80;;;2.80;;
16029;SDS011;34770;49.272;11.070;2023-09-07T14:25:12;6.13;;;3.33;;
16029;SDS011;34770;49.272;11.070;2023-09-07T14:27:38;2.95;;;2.63;;
16029;SDS011;34770;49.272;11.070;2023-09-07T14:30:04;7.40;;;3.10;;
16029;SDS011;34770;49.272;11.070;2023-09-07T14:32:30;5.70;;;2.70;;
16029;SDS011;34770;49.272;11.070;2023-09-07T14:34:55;6.20;;;2.63;;